createdAt,value
2023-03-25T00:01:24.432Z,7.46
2023-03-25T00:03:51.170Z,7.46
2023-03-25T00:06:17.591Z,7.48
2023-03-25T00:08:43.967Z,7.48
2023-03-25T00:11:10.518Z,7.48
2023-03-25T00:13:36.862Z,7.45
2023-03-25T00:16:03.188Z,7.45
2023-03-25T00:18:29.515Z,7.46
2023-03-25T00:20:55.866Z,7.45
2023-03-25T00:23:22.193Z,7.48
2023-03-25T00:25:48.792Z,7.48
2023-03-25T00:28:15.240Z,7.46
2023-03-25T00:30:41.647Z,7.46
2023-03-25T00:33:08.018Z,7.48
2023-03-25T00:35:34.442Z,7.48
2023-03-25T00:38:00.798Z,7.46
2023-03-25T00:40:27.178Z,7.45
2023-03-25T00:42:53.552Z,7.45
2023-03-25T00:45:19.911Z,7.43
2023-03-25T00:47:46.300Z,7.46
2023-03-25T00:50:12.707Z,7.45
2023-03-25T00:52:39.056Z,7.48
2023-03-25T00:55:05.398Z,7.45
2023-03-25T00:57:31.745Z,7.45
2023-03-25T00:59:58.098Z,7.45
2023-03-25T01:02:24.558Z,7.43
2023-03-25T01:04:50.968Z,7.43
2023-03-25T01:07:17.336Z,7.43
2023-03-25T01:09:43.764Z,7.42
2023-03-25T01:12:10.097Z,7.42
2023-03-25T01:14:36.426Z,7.45
2023-03-25T01:17:02.786Z,7.43
2023-03-25T01:19:29.361Z,7.45
2023-03-25T01:21:55.719Z,7.45
2023-03-25T01:24:22.073Z,7.42
2023-03-25T01:26:48.417Z,7.42
2023-03-25T01:29:14.751Z,7.43
2023-03-25T01:31:41.162Z,7.43
2023-03-25T01:34:07.608Z,7.45
2023-03-25T01:36:33.933Z,7.45
2023-03-25T01:39:00.263Z,7.43
2023-03-25T01:41:29.204Z,7.45
2023-03-25T01:44:02.379Z,7.46
2023-03-25T01:46:29.011Z,7.45
2023-03-25T01:48:55.353Z,7.42
2023-03-25T01:51:21.697Z,7.45
2023-03-25T01:53:48.026Z,7.42
2023-03-25T01:56:14.353Z,7.42
2023-03-25T01:58:40.690Z,7.43
2023-03-25T02:01:07.094Z,7.43
2023-03-25T02:03:33.520Z,7.42
2023-03-25T02:05:59.915Z,7.45
2023-03-25T02:08:26.261Z,7.45
2023-03-25T02:10:52.782Z,7.42
2023-03-25T02:13:19.159Z,7.42
2023-03-25T02:15:45.518Z,7.41
2023-03-25T02:18:12.078Z,7.42
2023-03-25T02:20:38.422Z,7.41
2023-03-25T02:23:04.759Z,7.43
2023-03-25T02:25:31.129Z,7.45
2023-03-25T02:27:57.459Z,7.45
2023-03-25T02:30:23.787Z,7.43
2023-03-25T02:33:08.514Z,7.45
2023-03-25T02:35:35.147Z,7.43
2023-03-25T02:38:01.557Z,7.45
2023-03-25T02:40:27.955Z,7.43
2023-03-25T02:42:54.320Z,7.43
2023-03-25T02:45:20.947Z,7.41
2023-03-25T02:47:47.395Z,7.41
2023-03-25T02:50:13.863Z,7.43
2023-03-25T02:52:40.251Z,7.43
2023-03-25T02:55:06.654Z,7.42
2023-03-25T02:57:33.041Z,7.42
2023-03-25T02:59:59.422Z,7.42
2023-03-25T03:02:25.930Z,7.43
2023-03-25T03:04:52.603Z,7.42
2023-03-25T03:07:18.982Z,7.43
2023-03-25T03:09:45.341Z,7.43
2023-03-25T03:12:11.718Z,7.41
2023-03-25T03:14:38.111Z,7.43
2023-03-25T03:17:04.593Z,7.42
2023-03-25T03:19:31.048Z,7.42
2023-03-25T03:21:57.634Z,7.43
2023-03-25T03:24:24.038Z,7.42
2023-03-25T03:26:50.655Z,7.41
2023-03-25T03:29:17.030Z,7.41
2023-03-25T03:31:59.187Z,7.43
2023-03-25T03:34:29.802Z,7.43
2023-03-25T03:36:56.167Z,7.41
2023-03-25T03:39:22.553Z,7.43
2023-03-25T03:41:48.945Z,7.43
2023-03-25T03:44:15.311Z,7.43
2023-03-25T03:46:41.732Z,7.45
2023-03-25T03:49:08.142Z,7.43
2023-03-25T03:51:34.533Z,7.45
2023-03-25T03:54:00.943Z,7.41
2023-03-25T03:56:27.376Z,7.42
2023-03-25T03:58:53.779Z,7.42
2023-03-25T04:01:20.146Z,7.41
2023-03-25T04:03:46.597Z,7.41
2023-03-25T04:06:12.981Z,7.43
2023-03-25T04:08:39.595Z,7.41
2023-03-25T04:11:05.943Z,7.42
2023-03-25T04:13:32.300Z,7.41
2023-03-25T04:15:58.689Z,7.43
2023-03-25T04:18:25.288Z,7.42
2023-03-25T04:20:51.697Z,7.41
2023-03-25T04:23:18.094Z,7.39
2023-03-25T04:25:44.442Z,7.41
2023-03-25T04:28:10.807Z,7.42
2023-03-25T04:30:37.186Z,7.42
2023-03-25T04:33:03.588Z,7.41
2023-03-25T04:35:29.965Z,7.39
2023-03-25T04:37:56.310Z,7.39
2023-03-25T04:40:22.697Z,7.38
2023-03-25T04:42:49.103Z,7.41
2023-03-25T04:45:15.756Z,7.39
2023-03-25T04:47:42.247Z,7.39
2023-03-25T04:50:08.646Z,7.38
2023-03-25T04:52:35.013Z,7.38
2023-03-25T04:55:01.416Z,7.41
2023-03-25T04:57:27.802Z,7.41
2023-03-25T04:59:54.196Z,7.39
2023-03-25T05:02:20.569Z,7.38
2023-03-25T05:04:46.978Z,7.39
2023-03-25T05:07:13.375Z,7.39
2023-03-25T05:09:39.759Z,7.41
2023-03-25T05:12:06.122Z,7.41
2023-03-25T05:14:32.480Z,7.41
2023-03-25T05:16:58.846Z,7.38
2023-03-25T05:19:25.217Z,7.39
2023-03-25T05:21:51.617Z,7.39
2023-03-25T05:24:17.983Z,7.39
2023-03-25T05:26:44.381Z,7.39
2023-03-25T05:29:10.779Z,7.36
2023-03-25T05:31:37.172Z,7.39
2023-03-25T05:34:03.579Z,7.38
2023-03-25T05:36:29.952Z,7.41
2023-03-25T05:38:56.337Z,7.38
2023-03-25T05:41:22.743Z,7.38
2023-03-25T05:43:49.120Z,7.38
2023-03-25T05:46:15.724Z,7.36
2023-03-25T05:48:42.127Z,7.39
2023-03-25T05:51:08.495Z,7.39
2023-03-25T05:53:35.104Z,7.38
2023-03-25T05:56:01.529Z,7.38
2023-03-25T05:58:27.894Z,7.39
2023-03-25T06:00:54.273Z,7.38
2023-03-25T06:03:20.796Z,7.38
2023-03-25T06:05:47.285Z,7.39
2023-03-25T06:08:13.690Z,7.36
2023-03-25T06:10:40.074Z,7.41
2023-03-25T06:13:06.466Z,7.36
2023-03-25T06:15:32.886Z,7.38
2023-03-25T06:17:59.660Z,7.36
2023-03-25T06:20:26.067Z,7.39
2023-03-25T06:22:52.466Z,7.36
2023-03-25T06:25:18.884Z,7.36
2023-03-25T06:27:45.550Z,7.38
2023-03-25T06:30:11.922Z,7.38
2023-03-25T06:32:38.373Z,7.36
2023-03-25T06:35:04.817Z,7.38
2023-03-25T06:37:31.215Z,7.35
2023-03-25T06:39:57.823Z,7.36
2023-03-25T06:42:24.175Z,7.33
2023-03-25T06:44:50.552Z,7.36
2023-03-25T06:47:16.919Z,7.36
2023-03-25T06:49:43.307Z,7.33
2023-03-25T06:52:09.696Z,7.35
2023-03-25T06:54:36.088Z,7.35
2023-03-25T06:57:02.758Z,7.36
2023-03-25T06:59:29.169Z,7.35
2023-03-25T07:01:55.562Z,7.38
2023-03-25T07:04:22.216Z,7.35
2023-03-25T07:06:48.591Z,7.39
2023-03-25T07:09:14.972Z,7.39
2023-03-25T07:11:41.356Z,7.39
2023-03-25T07:14:07.746Z,7.33
2023-03-25T07:16:34.191Z,7.32
2023-03-25T07:19:00.576Z,7.33
2023-03-25T07:21:26.959Z,7.32
2023-03-25T07:23:53.346Z,7.36
2023-03-25T07:26:19.721Z,7.35
2023-03-25T07:28:46.116Z,7.35
2023-03-25T07:31:12.546Z,7.35
2023-03-25T07:33:39.200Z,7.35
2023-03-25T07:36:05.587Z,7.35
2023-03-25T07:38:32.238Z,7.33
2023-03-25T07:40:58.622Z,7.36
2023-03-25T07:43:24.992Z,7.31
2023-03-25T07:45:51.637Z,7.35
2023-03-25T07:48:18.039Z,7.33
2023-03-25T07:50:44.658Z,7.33
2023-03-25T07:53:11.050Z,7.35
2023-03-25T07:55:37.452Z,7.31
2023-03-25T07:58:03.849Z,7.35
2023-03-25T08:00:30.238Z,7.35
2023-03-25T08:02:56.701Z,7.32
2023-03-25T08:05:23.181Z,7.35
2023-03-25T08:07:49.585Z,7.36
2023-03-25T08:10:15.963Z,7.36
2023-03-25T08:12:42.416Z,7.35
2023-03-25T08:15:08.810Z,7.35
2023-03-25T08:17:35.203Z,7.35
2023-03-25T08:20:01.617Z,7.33
2023-03-25T08:22:28.235Z,7.38
2023-03-25T08:24:54.593Z,7.36
2023-03-25T08:27:21.168Z,7.35
2023-03-25T08:29:47.548Z,7.33
2023-03-25T08:32:14.135Z,7.35
2023-03-25T08:34:40.501Z,7.33
2023-03-25T08:37:06.860Z,7.33
2023-03-25T08:39:33.224Z,7.32
2023-03-25T08:41:59.789Z,7.33
2023-03-25T08:44:26.390Z,7.33
2023-03-25T08:46:52.784Z,7.33
2023-03-25T08:49:19.179Z,7.32
2023-03-25T08:51:45.622Z,7.35
2023-03-25T08:54:12.202Z,7.36
2023-03-25T08:56:38.635Z,7.33
2023-03-25T08:59:05.033Z,7.33
2023-03-25T09:01:31.441Z,7.33
2023-03-25T09:03:57.877Z,7.31
2023-03-25T09:06:24.289Z,7.33
2023-03-25T09:08:50.676Z,7.33
2023-03-25T09:11:24.177Z,7.32
2023-03-25T09:13:56.739Z,7.32
2023-03-25T09:16:23.423Z,7.32
2023-03-25T09:18:49.834Z,7.33
2023-03-25T09:21:16.390Z,7.32
2023-03-25T09:23:42.771Z,7.33
2023-03-25T09:26:09.142Z,7.33
2023-03-25T09:28:35.520Z,7.33
2023-03-25T09:31:01.923Z,7.33
2023-03-25T09:33:28.557Z,7.33
2023-03-25T09:35:55.185Z,7.35
2023-03-25T09:38:21.808Z,7.29
2023-03-25T09:40:48.212Z,7.32
2023-03-25T09:43:14.829Z,7.32
2023-03-25T09:45:41.237Z,7.31
2023-03-25T09:48:08.178Z,7.32
2023-03-25T09:50:34.639Z,7.32
2023-03-25T09:53:01.216Z,7.33
2023-03-25T09:55:27.599Z,7.33
2023-03-25T09:57:54.000Z,7.33
2023-03-25T10:00:20.367Z,7.32
2023-03-25T10:02:47.008Z,7.35
2023-03-25T10:05:13.440Z,7.35
2023-03-25T10:07:39.782Z,7.33
2023-03-25T10:10:06.175Z,7.38
2023-03-25T10:12:32.572Z,7.36
2023-03-25T10:14:58.979Z,7.36
2023-03-25T10:17:25.370Z,7.36
2023-03-25T10:19:51.977Z,7.36
2023-03-25T10:22:18.551Z,7.33
2023-03-25T10:24:45.153Z,7.35
2023-03-25T10:27:11.523Z,7.35
2023-03-25T10:29:38.102Z,7.36
2023-03-25T10:32:04.495Z,7.38
2023-03-25T10:34:30.885Z,7.35
2023-03-25T10:36:57.244Z,7.38
2023-03-25T10:39:23.595Z,7.36
2023-03-25T10:41:49.949Z,7.35
2023-03-25T10:44:16.315Z,7.36
2023-03-25T10:46:42.938Z,7.38
2023-03-25T10:49:09.517Z,7.35
2023-03-25T10:51:36.119Z,7.36
2023-03-25T10:54:02.489Z,7.38
2023-03-25T10:56:28.863Z,7.36
2023-03-25T10:58:55.279Z,7.35
2023-03-25T11:01:21.894Z,7.35
2023-03-25T11:03:48.312Z,7.36
2023-03-25T11:06:14.901Z,7.38
2023-03-25T11:08:41.269Z,7.36
2023-03-25T11:11:07.659Z,7.35
2023-03-25T11:13:34.238Z,7.38
2023-03-25T11:16:00.643Z,7.36
2023-03-25T11:18:27.068Z,7.36
2023-03-25T11:20:53.658Z,7.36
2023-03-25T11:23:20.017Z,7.36
2023-03-25T11:25:46.390Z,7.38
2023-03-25T11:28:12.758Z,7.39
2023-03-25T11:30:39.179Z,7.38
2023-03-25T11:33:05.653Z,7.41
2023-03-25T11:35:32.300Z,7.39
2023-03-25T11:37:59.040Z,7.39
2023-03-25T11:40:25.434Z,7.41
2023-03-25T11:42:52.051Z,7.41
2023-03-25T11:45:18.435Z,7.41
2023-03-25T11:47:44.869Z,7.39
2023-03-25T11:50:11.295Z,7.41
2023-03-25T11:52:37.664Z,7.41
2023-03-25T11:55:04.033Z,7.41
2023-03-25T11:57:32.196Z,7.41
2023-03-25T11:59:59.386Z,7.41
2023-03-25T12:02:25.983Z,7.42
2023-03-25T12:04:52.389Z,7.41
2023-03-25T12:07:18.782Z,7.39
2023-03-25T12:09:45.380Z,7.42
2023-03-25T12:12:11.745Z,7.42
2023-03-25T12:14:38.129Z,7.43
2023-03-25T12:17:04.549Z,7.45
2023-03-25T12:19:30.927Z,7.41
2023-03-25T12:21:57.306Z,7.43
2023-03-25T12:24:23.719Z,7.45
2023-03-25T12:26:50.097Z,7.43
2023-03-25T12:29:16.467Z,7.45
2023-03-25T12:31:43.100Z,7.43
2023-03-25T12:34:09.693Z,7.48
2023-03-25T12:36:36.074Z,7.48
2023-03-25T12:39:03.072Z,7.45
2023-03-25T12:41:29.476Z,7.48
2023-03-25T12:43:56.087Z,7.49
2023-03-25T12:46:22.931Z,7.46
2023-03-25T12:48:49.278Z,7.46
2023-03-25T12:51:15.655Z,7.48
2023-03-25T12:53:42.034Z,7.49
2023-03-25T12:56:09.955Z,7.48
2023-03-25T12:58:37.523Z,7.49
2023-03-25T13:01:04.139Z,7.49
2023-03-25T13:03:30.598Z,7.49
2023-03-25T13:05:57.023Z,7.49
2023-03-25T13:08:23.407Z,7.50
2023-03-25T13:10:49.948Z,7.50
2023-03-25T13:13:16.539Z,7.50
2023-03-25T13:15:42.902Z,7.49
2023-03-25T13:18:09.334Z,7.53
2023-03-25T13:20:35.757Z,7.52
2023-03-25T13:23:02.175Z,7.53
2023-03-25T13:25:28.772Z,7.53
2023-03-25T13:27:55.142Z,7.52
2023-03-25T13:30:21.566Z,7.53
2023-03-25T13:32:48.046Z,7.52
2023-03-25T13:35:14.516Z,7.50
2023-03-25T13:37:41.112Z,7.53
2023-03-25T13:40:07.535Z,7.55
2023-03-25T13:42:36.888Z,7.50
2023-03-25T13:45:03.301Z,7.58
2023-03-25T13:47:29.939Z,7.55
2023-03-25T13:49:56.331Z,7.52
2023-03-25T13:52:22.729Z,7.58
2023-03-25T13:54:49.204Z,7.55
2023-03-25T13:57:15.615Z,7.56
2023-03-25T13:59:42.232Z,7.58
2023-03-25T14:02:08.640Z,7.56
2023-03-25T14:04:35.050Z,7.56
2023-03-25T14:07:01.424Z,7.58
2023-03-25T14:09:27.809Z,7.58
2023-03-25T14:11:54.203Z,7.60
2023-03-25T14:14:20.574Z,7.58
2023-03-25T14:16:46.975Z,7.58
2023-03-25T14:19:13.390Z,7.59
2023-03-25T14:21:39.771Z,7.58
2023-03-25T14:24:06.132Z,7.59
2023-03-25T14:26:32.520Z,7.58
2023-03-25T14:28:58.912Z,7.58
2023-03-25T14:31:25.376Z,7.59
2023-03-25T14:33:51.814Z,7.59
2023-03-25T14:36:18.237Z,7.60
2023-03-25T14:38:44.597Z,7.62
2023-03-25T14:41:10.951Z,7.63
2023-03-25T14:43:37.561Z,7.63
2023-03-25T14:46:04.179Z,7.65
2023-03-25T14:48:30.746Z,7.62
2023-03-25T14:50:57.236Z,7.65
2023-03-25T14:53:23.642Z,7.62
2023-03-25T14:55:50.012Z,7.65
2023-03-25T14:58:16.369Z,7.66
2023-03-25T15:00:42.755Z,7.67
2023-03-25T15:03:09.124Z,7.67
2023-03-25T15:05:35.542Z,7.67
2023-03-25T15:08:02.190Z,7.67
2023-03-25T15:10:28.791Z,7.65
2023-03-25T15:12:55.186Z,7.69
2023-03-25T15:15:21.787Z,7.67
2023-03-25T15:17:48.167Z,7.71
2023-03-25T15:20:14.553Z,7.69
2023-03-25T15:22:40.920Z,7.70
2023-03-25T15:25:07.320Z,7.70
2023-03-25T15:27:33.999Z,7.67
2023-03-25T15:30:00.595Z,7.69
2023-03-25T15:32:27.035Z,7.67
2023-03-25T15:34:53.610Z,7.69
2023-03-25T15:37:19.974Z,7.69
2023-03-25T15:39:46.328Z,7.69
2023-03-25T15:42:13.009Z,7.70
2023-03-25T15:44:39.412Z,7.70
2023-03-25T15:47:05.817Z,7.67
2023-03-25T15:49:32.393Z,7.70
2023-03-25T15:51:58.776Z,7.69
2023-03-25T15:54:25.142Z,7.69
2023-03-25T15:56:51.794Z,7.67
2023-03-25T15:59:18.207Z,7.69
2023-03-25T16:01:44.889Z,7.69
2023-03-25T16:04:11.487Z,7.67
2023-03-25T16:06:37.883Z,7.67
2023-03-25T16:09:04.236Z,7.70
2023-03-25T16:11:30.594Z,7.67
2023-03-25T16:13:56.953Z,7.67
2023-03-25T16:16:23.333Z,7.69
2023-03-25T16:18:49.851Z,7.67
2023-03-25T16:21:16.236Z,7.66
2023-03-25T16:23:42.626Z,7.69
2023-03-25T16:26:09.192Z,7.69
2023-03-25T16:28:35.556Z,7.70
2023-03-25T16:31:01.928Z,7.69
2023-03-25T16:33:28.319Z,7.71
2023-03-25T16:35:54.708Z,7.70
2023-03-25T16:38:21.122Z,7.70
2023-03-25T16:40:47.541Z,7.69
2023-03-25T16:43:14.148Z,7.69
2023-03-25T16:45:40.542Z,7.71
2023-03-25T16:48:07.020Z,7.67
2023-03-25T16:50:33.413Z,7.67
2023-03-25T16:53:00.012Z,7.67
2023-03-25T16:55:26.401Z,7.67
2023-03-25T16:57:52.779Z,7.66
2023-03-25T17:00:19.200Z,7.66
2023-03-25T17:02:45.709Z,7.65
2023-03-25T17:05:12.390Z,7.67
2023-03-25T17:07:38.788Z,7.66
2023-03-25T17:10:06.664Z,7.67
2023-03-25T17:12:33.135Z,7.67
2023-03-25T17:14:59.504Z,7.66
2023-03-25T17:17:25.919Z,7.66
2023-03-25T17:19:52.393Z,7.65
2023-03-25T17:22:18.780Z,7.65
2023-03-25T17:24:45.429Z,7.66
2023-03-25T17:27:11.812Z,7.65
2023-03-25T17:29:38.193Z,7.66
2023-03-25T17:32:04.566Z,7.66
2023-03-25T17:34:30.938Z,7.66
2023-03-25T17:36:57.316Z,7.65
2023-03-25T17:39:23.688Z,7.65
2023-03-25T17:41:50.083Z,7.66
2023-03-25T17:44:16.477Z,7.63
2023-03-25T17:46:43.181Z,7.65
2023-03-25T17:49:09.838Z,7.65
2023-03-25T17:51:36.209Z,7.66
2023-03-25T17:54:02.794Z,7.66
2023-03-25T17:56:29.272Z,7.66
2023-03-25T17:58:55.872Z,7.65
2023-03-25T18:01:22.304Z,7.63
2023-03-25T18:03:48.678Z,7.63
2023-03-25T18:06:15.051Z,7.65
2023-03-25T18:08:41.644Z,7.62
2023-03-25T18:11:08.030Z,7.65
2023-03-25T18:13:34.418Z,7.63
2023-03-25T18:16:00.854Z,7.63
2023-03-25T18:18:27.401Z,7.65
2023-03-25T18:20:54.073Z,7.65
2023-03-25T18:23:20.671Z,7.63
2023-03-25T18:25:47.055Z,7.62
2023-03-25T18:28:13.517Z,7.62
2023-03-25T18:30:39.910Z,7.62
2023-03-25T18:33:06.315Z,7.62
2023-03-25T18:35:32.755Z,7.63
2023-03-25T18:37:59.162Z,7.63
2023-03-25T18:40:25.550Z,7.63
2023-03-25T18:42:51.925Z,7.63
2023-03-25T18:45:18.625Z,7.65
2023-03-25T18:47:45.062Z,7.62
2023-03-25T18:50:11.496Z,7.62
2023-03-25T18:52:37.899Z,7.62
2023-03-25T18:55:04.281Z,7.62
2023-03-25T18:57:30.635Z,7.63
2023-03-25T18:59:57.237Z,7.63
2023-03-25T19:02:23.695Z,7.63
2023-03-25T19:05:00.220Z,7.60
2023-03-25T19:07:27.578Z,7.62
2023-03-25T19:09:53.965Z,7.60
2023-03-25T19:12:20.378Z,7.62
2023-03-25T19:14:46.745Z,7.62
2023-03-25T19:17:13.151Z,7.62
2023-03-25T19:19:39.592Z,7.59
2023-03-25T19:22:05.963Z,7.59
2023-03-25T19:24:32.349Z,7.62
2023-03-25T19:26:58.718Z,7.60
2023-03-25T19:29:25.339Z,7.59
2023-03-25T19:31:51.968Z,7.59
2023-03-25T19:34:18.537Z,7.60
2023-03-25T19:36:45.122Z,7.60
2023-03-25T19:41:58.771Z,7.62
2023-03-25T19:44:25.122Z,7.59
2023-03-25T19:46:51.506Z,7.58
2023-03-25T19:49:28.964Z,7.60
2023-03-25T19:52:03.039Z,7.59
2023-03-25T19:54:29.441Z,7.59
2023-03-25T19:56:55.811Z,7.59
2023-03-25T19:59:22.444Z,7.59
2023-03-25T20:01:48.883Z,7.56
2023-03-25T20:04:16.995Z,7.56
2023-03-25T20:06:43.491Z,7.58
2023-03-25T20:09:09.880Z,7.58
2023-03-25T20:11:36.257Z,7.58
2023-03-25T20:14:02.860Z,7.58
2023-03-25T20:16:29.285Z,7.58
2023-03-25T20:18:55.704Z,7.58
2023-03-25T20:21:22.267Z,7.58
2023-03-25T20:23:48.652Z,7.60
2023-03-25T20:26:15.020Z,7.56
2023-03-25T20:28:41.398Z,7.58
2023-03-25T20:31:07.816Z,7.56
2023-03-25T20:33:34.265Z,7.56
2023-03-25T20:36:00.718Z,7.59
2023-03-25T20:38:27.379Z,7.58
2023-03-25T20:40:53.982Z,7.55
2023-03-25T20:43:20.351Z,7.59
2023-03-25T20:45:46.704Z,7.56
2023-03-25T20:48:13.115Z,7.56
2023-03-25T20:50:39.555Z,7.55
2023-03-25T20:53:06.178Z,7.58
2023-03-25T20:55:32.545Z,7.55
2023-03-25T20:57:58.898Z,7.56
2023-03-25T21:00:25.294Z,7.58
2023-03-25T21:02:51.687Z,7.59
2023-03-25T21:05:18.081Z,7.56
2023-03-25T21:07:44.478Z,7.56
2023-03-25T21:10:10.880Z,7.55
2023-03-25T21:12:43.973Z,7.55
2023-03-25T21:15:10.924Z,7.55
2023-03-25T21:17:37.466Z,7.55
2023-03-25T21:20:04.032Z,7.56
2023-03-25T21:22:30.422Z,7.55
2023-03-25T21:24:56.809Z,7.55
2023-03-25T21:27:38.203Z,7.56
2023-03-25T21:30:06.605Z,7.55
2023-03-25T21:32:33.003Z,7.53
2023-03-25T21:34:59.402Z,7.53
2023-03-25T21:37:25.778Z,7.55
2023-03-25T21:39:52.140Z,7.58
2023-03-25T21:42:18.529Z,7.55
2023-03-25T21:44:44.917Z,7.53
2023-03-25T21:47:11.811Z,7.56
2023-03-25T21:49:38.160Z,7.56
2023-03-25T21:52:04.548Z,7.53
2023-03-25T21:54:30.955Z,7.55
2023-03-25T21:56:57.377Z,7.55
2023-03-25T21:59:23.861Z,7.52
2023-03-25T22:01:50.242Z,7.55
2023-03-25T22:04:16.877Z,7.52
2023-03-25T22:06:43.286Z,7.55
2023-03-25T22:09:09.665Z,7.53
2023-03-25T22:11:36.011Z,7.52
2023-03-25T22:14:02.398Z,7.53
2023-03-25T22:16:29.057Z,7.53
2023-03-25T22:18:55.462Z,7.52
2023-03-25T22:21:21.840Z,7.53
2023-03-25T22:23:48.424Z,7.53
2023-03-25T22:26:14.804Z,7.52
2023-03-25T22:28:41.398Z,7.53
2023-03-25T22:31:07.821Z,7.53
2023-03-25T22:33:36.420Z,7.52
2023-03-25T22:36:03.066Z,7.56
2023-03-25T22:38:29.434Z,7.55
2023-03-25T22:40:55.801Z,7.52
2023-03-25T22:43:22.171Z,7.50
2023-03-25T22:45:48.620Z,7.52
2023-03-25T22:48:14.999Z,7.55
2023-03-25T22:50:41.397Z,7.53
2023-03-25T22:53:07.788Z,7.52
2023-03-25T22:55:34.390Z,7.53
2023-03-25T22:58:00.767Z,7.52
2023-03-25T23:00:27.171Z,7.52
2023-03-25T23:02:53.654Z,7.52
2023-03-25T23:05:20.094Z,7.50
2023-03-25T23:07:46.481Z,7.50
2023-03-25T23:10:12.877Z,7.49
2023-03-25T23:12:39.278Z,7.52
2023-03-25T23:15:05.893Z,7.50
2023-03-25T23:17:32.285Z,7.52
2023-03-25T23:19:58.718Z,7.53
2023-03-25T23:22:25.149Z,7.52
2023-03-25T23:24:51.891Z,7.52
2023-03-25T23:27:18.261Z,7.46
2023-03-25T23:29:44.635Z,7.52
2023-03-25T23:32:11.242Z,7.49
2023-03-25T23:34:37.616Z,7.49
2023-03-25T23:37:03.973Z,7.48
2023-03-25T23:39:30.363Z,7.50
2023-03-25T23:41:56.770Z,7.50
2023-03-25T23:44:23.180Z,7.50
2023-03-25T23:46:49.589Z,7.49
2023-03-25T23:49:15.985Z,7.49
2023-03-25T23:51:42.375Z,7.48
2023-03-25T23:54:08.977Z,7.49
2023-03-25T23:56:35.553Z,7.48
2023-03-25T23:59:01.941Z,7.52
